createdAt,value
2023-05-02T09:15:14.378Z,39.34
2023-05-02T09:16:14.482Z,38.67
2023-05-02T09:17:14.416Z,38.36
2023-05-02T09:18:14.432Z,38.49
2023-05-02T09:19:14.445Z,38.37
2023-05-02T09:20:14.435Z,38.45
2023-05-02T09:21:14.519Z,38.41
2023-05-02T09:22:14.431Z,38.35
2023-05-02T09:23:14.860Z,38.35
2023-05-02T09:24:14.412Z,38.27
2023-05-02T09:25:14.443Z,38.27
2023-05-02T09:26:14.464Z,38.15
2023-05-02T09:27:14.553Z,38.16
2023-05-02T09:28:14.572Z,38.08
2023-05-02T09:29:14.648Z,38.03
2023-05-02T09:30:14.848Z,38.09
2023-05-02T09:31:16.914Z,38.14
2023-05-02T09:32:14.815Z,38.04
2023-05-02T09:33:15.507Z,38.00
2023-05-02T09:34:14.746Z,38.01
2023-05-02T09:35:14.727Z,37.83
2023-05-02T09:36:14.752Z,37.77
2023-05-02T09:37:14.730Z,37.88
2023-05-02T09:38:14.718Z,37.92
2023-05-02T09:39:14.709Z,37.87
2023-05-02T09:40:14.684Z,37.64
2023-05-02T09:41:14.701Z,37.71
2023-05-02T09:42:14.674Z,37.75
2023-05-02T09:43:14.673Z,37.79
2023-05-02T09:44:14.678Z,37.86
2023-05-02T09:45:14.681Z,37.84
2023-05-02T09:46:14.717Z,37.84
2023-05-02T09:47:14.773Z,37.89
2023-05-02T09:48:14.652Z,37.92
2023-05-02T09:49:14.651Z,37.87
2023-05-02T09:50:14.639Z,37.84
2023-05-02T09:51:14.630Z,37.85
2023-05-02T09:52:14.684Z,37.83
2023-05-02T09:53:14.616Z,37.80
2023-05-02T09:54:14.620Z,37.78
2023-05-02T09:55:14.634Z,37.81
2023-05-02T09:56:14.631Z,37.80
2023-05-02T09:57:14.634Z,37.76
2023-05-02T09:58:14.641Z,37.80
2023-05-02T09:59:14.681Z,37.79
2023-05-02T10:00:14.642Z,37.77
2023-05-02T10:01:14.725Z,37.75
2023-05-02T10:02:14.637Z,37.74
2023-05-02T10:03:14.792Z,37.76
2023-05-02T10:04:14.670Z,37.75
2023-05-02T10:05:14.761Z,37.75
2023-05-02T10:06:14.943Z,37.72
2023-05-02T10:07:14.660Z,37.70
2023-05-02T10:08:14.893Z,37.67
2023-05-02T10:09:18.878Z,37.63
2023-05-02T10:10:15.650Z,37.62
2023-05-02T10:11:14.861Z,37.56
2023-05-02T10:12:14.648Z,37.55
2023-05-02T10:13:14.641Z,37.47
2023-05-02T10:14:14.628Z,37.43
2023-05-02T10:15:14.605Z,37.51
2023-05-02T10:16:14.876Z,37.44
2023-05-02T10:17:14.615Z,37.45
2023-05-02T10:18:14.666Z,37.43
2023-05-02T10:19:14.575Z,37.46
2023-05-02T10:20:14.613Z,37.53
2023-05-02T10:21:14.562Z,37.53
2023-05-02T10:22:14.587Z,36.58
2023-05-02T10:23:14.886Z,36.22
2023-05-02T10:24:14.549Z,36.75
2023-05-02T10:25:14.534Z,37.20
2023-05-02T10:26:14.870Z,37.18
2023-05-02T10:27:15.381Z,37.22
2023-05-02T10:28:14.524Z,37.29
2023-05-02T10:29:14.500Z,37.27
2023-05-02T10:30:14.516Z,37.27
2023-05-02T10:31:14.904Z,37.27
2023-05-02T10:32:14.492Z,37.14
2023-05-02T10:33:15.046Z,37.11
2023-05-02T10:34:14.487Z,37.00
2023-05-02T10:35:14.473Z,36.94
2023-05-02T10:36:14.903Z,36.89
2023-05-02T10:37:14.470Z,36.83
2023-05-02T10:38:14.898Z,36.86
2023-05-02T10:39:14.431Z,37.19
2023-05-02T10:40:14.441Z,37.04
2023-05-02T10:41:14.432Z,37.11
2023-05-02T10:42:14.408Z,37.10
2023-05-02T10:43:14.444Z,36.98
2023-05-02T10:44:14.408Z,36.94
2023-05-02T10:45:14.416Z,36.83
2023-05-02T10:46:14.446Z,36.63
2023-05-02T10:47:14.380Z,36.62
2023-05-02T10:48:14.387Z,36.82
2023-05-02T10:49:14.380Z,36.92
2023-05-02T10:50:14.376Z,36.86
2023-05-02T10:51:14.395Z,36.85
2023-05-02T10:52:14.392Z,36.80
2023-05-02T10:53:14.409Z,36.69
2023-05-02T10:54:14.408Z,36.54
2023-05-02T10:55:14.408Z,36.53
2023-05-02T10:56:14.406Z,36.43
2023-05-02T10:57:14.379Z,36.33
2023-05-02T10:58:14.393Z,36.29
2023-05-02T10:59:14.377Z,36.23
2023-05-02T11:00:14.432Z,36.13
2023-05-02T11:01:14.429Z,36.03
2023-05-02T11:02:14.444Z,35.95
2023-05-02T11:03:14.573Z,35.62
2023-05-02T11:04:14.416Z,34.26
2023-05-02T11:05:14.428Z,35.32
2023-05-02T11:06:14.458Z,35.33
2023-05-02T11:07:14.453Z,35.38
2023-05-02T11:08:14.433Z,35.30
2023-05-02T11:09:14.472Z,35.20
2023-05-02T11:10:14.508Z,35.16
2023-05-02T11:11:14.455Z,35.17
2023-05-02T11:12:14.454Z,35.14
2023-05-02T11:13:14.442Z,35.08
2023-05-02T11:14:14.494Z,35.11
2023-05-02T11:15:14.438Z,35.12
2023-05-02T11:16:14.961Z,34.93
2023-05-02T11:17:14.528Z,34.76
2023-05-02T11:18:14.763Z,34.66
2023-05-02T11:19:14.581Z,34.83
2023-05-02T11:20:14.601Z,34.90
2023-05-02T11:21:14.602Z,34.91
2023-05-02T11:22:14.624Z,34.89
2023-05-02T11:23:14.638Z,34.88
2023-05-02T11:24:14.669Z,34.88
2023-05-02T11:25:14.672Z,34.84
2023-05-02T11:26:14.689Z,34.85
2023-05-02T11:27:14.720Z,34.83
2023-05-02T11:28:14.691Z,34.80
2023-05-02T11:29:14.711Z,34.78
2023-05-02T11:30:14.713Z,34.76
2023-05-02T11:31:14.710Z,34.75
2023-05-02T11:32:14.784Z,34.70
2023-05-02T11:33:14.739Z,34.70
2023-05-02T11:34:14.681Z,34.71
2023-05-02T11:35:14.689Z,34.68
2023-05-02T11:36:14.694Z,34.62
2023-05-02T11:37:14.703Z,34.57
2023-05-02T11:38:14.697Z,34.53
2023-05-02T11:39:14.682Z,34.45
2023-05-02T11:40:14.682Z,34.43
2023-05-02T11:41:14.686Z,34.41
2023-05-02T11:42:14.685Z,34.38
2023-05-02T11:43:14.715Z,34.35
2023-05-02T11:44:14.740Z,34.35
2023-05-02T11:45:14.717Z,34.35
2023-05-02T11:46:14.834Z,34.29
2023-05-02T11:47:14.720Z,34.26
2023-05-02T11:48:14.852Z,34.22
2023-05-02T11:49:15.229Z,34.19
2023-05-02T11:50:14.747Z,34.16
2023-05-02T11:51:14.764Z,34.12
2023-05-02T11:52:14.771Z,34.05
2023-05-02T11:53:14.810Z,34.05
2023-05-02T11:54:14.789Z,34.03
2023-05-02T11:55:14.792Z,34.02
2023-05-02T11:56:14.836Z,33.97
2023-05-02T11:57:14.846Z,33.96
2023-05-02T11:58:14.887Z,33.92
2023-05-02T11:59:14.862Z,33.89
2023-05-02T12:00:14.878Z,33.86
2023-05-02T12:01:15.195Z,33.84
2023-05-02T12:02:14.941Z,33.83
2023-05-02T12:03:14.969Z,33.76
2023-05-02T12:04:14.922Z,33.79
2023-05-02T12:05:14.978Z,33.75
2023-05-02T12:06:15.370Z,33.71
2023-05-02T12:07:15.046Z,33.63
2023-05-02T12:08:15.451Z,33.90
2023-05-02T12:09:14.962Z,33.99
2023-05-02T12:10:14.962Z,35.37
2023-05-02T12:11:15.094Z,35.50
2023-05-02T12:12:14.986Z,35.46
2023-05-02T12:13:14.987Z,35.85
2023-05-02T12:14:14.992Z,34.43
2023-05-02T12:15:14.999Z,33.89
2023-05-02T12:16:15.290Z,33.72
2023-05-02T12:17:15.011Z,34.38
2023-05-02T12:18:15.039Z,34.43
2023-05-02T12:19:15.043Z,34.44
2023-05-02T12:20:15.050Z,34.41
2023-05-02T12:21:15.055Z,34.41
2023-05-02T12:22:15.070Z,34.38
2023-05-02T12:23:15.094Z,34.30
2023-05-02T12:24:15.102Z,34.25
2023-05-02T12:25:15.095Z,34.18
2023-05-02T12:26:15.422Z,34.12
2023-05-02T12:27:15.149Z,34.11
2023-05-02T12:28:15.145Z,34.07
2023-05-02T12:29:15.149Z,34.06
2023-05-02T12:30:15.150Z,34.06
2023-05-02T12:31:15.201Z,34.08
2023-05-02T12:32:15.176Z,34.10
2023-05-02T12:33:15.206Z,34.10
2023-05-02T12:34:15.191Z,34.12
2023-05-02T12:35:15.180Z,34.14
2023-05-02T12:36:15.205Z,34.16
2023-05-02T12:37:15.194Z,34.16
2023-05-02T12:38:15.198Z,34.19
2023-05-02T12:39:15.219Z,34.20
2023-05-02T12:40:15.317Z,34.22
2023-05-02T12:41:15.225Z,34.23
2023-05-02T12:42:15.247Z,34.23
2023-05-02T12:43:15.240Z,34.22
2023-05-02T12:44:15.249Z,34.21
2023-05-02T12:45:15.276Z,34.20
2023-05-02T12:46:15.280Z,34.16
2023-05-02T12:47:15.499Z,34.11
2023-05-02T12:48:15.408Z,34.09
2023-05-02T12:49:15.289Z,34.07
2023-05-02T12:50:15.313Z,34.02
2023-05-02T12:51:15.339Z,34.03
2023-05-02T12:52:15.330Z,34.02
2023-05-02T12:53:15.346Z,33.98
2023-05-02T12:54:15.363Z,33.90
2023-05-02T12:55:15.387Z,33.86
2023-05-02T12:56:15.376Z,33.83
2023-05-02T12:57:15.411Z,33.80
2023-05-02T12:58:15.410Z,33.78
2023-05-02T12:59:15.427Z,33.75
2023-05-02T13:00:15.428Z,33.70
2023-05-02T13:01:15.544Z,33.63
2023-05-02T13:02:15.467Z,33.59
2023-05-02T13:03:15.581Z,33.54
2023-05-02T13:04:15.631Z,33.48
2023-05-02T13:05:15.530Z,33.43
2023-05-02T13:06:15.544Z,33.41
2023-05-02T13:07:15.562Z,33.41
2023-05-02T13:08:15.562Z,33.35
2023-05-02T13:09:15.934Z,33.31
2023-05-02T13:10:15.584Z,33.27
2023-05-02T13:11:15.641Z,33.20
2023-05-02T13:12:15.615Z,33.17
2023-05-02T13:13:15.647Z,33.10
2023-05-02T13:14:15.659Z,33.10
2023-05-02T13:15:15.701Z,33.07
2023-05-02T13:16:15.792Z,33.03
2023-05-02T13:17:15.839Z,33.00
2023-05-02T13:18:15.861Z,32.99
2023-05-02T13:19:15.776Z,32.91
2023-05-02T13:20:15.777Z,32.88
2023-05-02T13:21:15.797Z,32.90
2023-05-02T13:22:15.791Z,32.86
2023-05-02T13:23:15.829Z,32.83
2023-05-02T13:24:15.842Z,32.82
2023-05-02T13:25:15.880Z,32.79
2023-05-02T13:26:15.903Z,32.80
2023-05-02T13:27:15.916Z,32.75
2023-05-02T13:28:15.953Z,32.74
2023-05-02T13:29:15.969Z,32.74
2023-05-02T13:30:16.008Z,32.72
2023-05-02T13:31:16.027Z,32.72
2023-05-02T13:32:16.030Z,32.68
2023-05-02T13:33:16.050Z,32.65
2023-05-02T13:34:16.063Z,32.65
2023-05-02T13:35:16.112Z,32.66
2023-05-02T13:36:16.119Z,32.62
2023-05-02T13:37:16.142Z,32.61
2023-05-02T13:38:16.157Z,32.64
2023-05-02T13:39:16.195Z,32.64
2023-05-02T13:40:16.223Z,32.60
2023-05-02T13:41:16.238Z,32.62
2023-05-02T13:42:16.248Z,32.60
2023-05-02T13:43:16.303Z,32.57
2023-05-02T13:44:16.316Z,32.57
2023-05-02T13:45:16.373Z,32.55
2023-05-02T13:46:16.371Z,32.53
2023-05-02T13:47:16.409Z,32.51
2023-05-02T13:48:16.503Z,32.52
2023-05-02T13:49:16.487Z,32.50
2023-05-02T13:50:16.503Z,32.51
2023-05-02T13:51:16.522Z,32.52
2023-05-02T13:52:16.542Z,32.51
2023-05-02T13:53:16.568Z,32.54
2023-05-02T13:54:16.605Z,32.50
2023-05-02T13:55:16.631Z,32.46
2023-05-02T13:56:16.642Z,32.48
2023-05-02T13:57:16.672Z,32.47
2023-05-02T13:58:16.710Z,32.45
2023-05-02T13:59:16.719Z,32.42
2023-05-02T14:00:16.743Z,32.41
2023-05-02T14:01:16.823Z,32.40
2023-05-02T14:02:16.848Z,32.36
2023-05-02T14:03:16.931Z,32.35
2023-05-02T14:04:16.873Z,32.36
2023-05-02T14:05:16.875Z,32.34
2023-05-02T14:06:16.971Z,32.31
2023-05-02T14:07:16.939Z,32.30
2023-05-02T14:08:16.948Z,32.29
2023-05-02T14:09:16.984Z,32.34
2023-05-02T14:10:17.018Z,32.32
2023-05-02T14:11:17.034Z,32.34
2023-05-02T14:12:17.058Z,32.31
2023-05-02T14:13:17.074Z,32.30
2023-05-02T14:14:17.114Z,32.28
2023-05-02T14:15:17.144Z,32.24
2023-05-02T14:16:17.228Z,32.26
2023-05-02T14:17:17.202Z,32.25
2023-05-02T14:18:17.222Z,32.26
2023-05-02T14:19:17.254Z,32.27
2023-05-02T14:20:17.286Z,32.28
2023-05-02T14:21:17.330Z,32.25
2023-05-02T14:22:17.361Z,32.27
2023-05-02T14:23:17.378Z,32.25
2023-05-02T14:24:17.419Z,32.19
2023-05-02T14:25:17.457Z,32.23
2023-05-02T14:26:17.495Z,32.24
2023-05-02T14:27:17.503Z,32.24
2023-05-02T14:28:17.573Z,32.22
2023-05-02T14:29:17.572Z,32.22
2023-05-02T14:30:17.607Z,32.23
2023-05-02T14:31:17.648Z,32.24
2023-05-02T14:32:17.686Z,32.22
2023-05-02T14:33:17.725Z,32.25
2023-05-02T14:34:17.756Z,32.27
2023-05-02T14:35:17.777Z,32.26
2023-05-02T14:36:17.815Z,32.29
2023-05-02T14:37:17.850Z,32.27
2023-05-02T14:38:17.865Z,32.31
2023-05-02T14:39:17.903Z,32.30
2023-05-02T14:40:17.949Z,32.27
2023-05-02T14:41:17.992Z,32.27
2023-05-02T14:42:18.021Z,32.29
2023-05-02T14:43:18.030Z,32.28
2023-05-02T14:44:18.097Z,32.29
2023-05-02T14:45:18.100Z,32.29
2023-05-02T14:46:18.161Z,32.30
2023-05-02T14:47:18.243Z,32.31
2023-05-02T14:48:18.224Z,32.32
2023-05-02T14:49:18.240Z,32.33
2023-05-02T14:50:18.251Z,32.33
2023-05-02T14:51:18.283Z,32.33
2023-05-02T14:52:18.335Z,32.34
2023-05-02T14:53:18.344Z,32.35
2023-05-02T14:54:18.391Z,32.29
2023-05-02T14:55:18.412Z,32.28
2023-05-02T14:56:18.452Z,32.29
2023-05-02T14:57:18.495Z,32.31
2023-05-02T14:58:18.514Z,32.29
2023-05-02T14:59:18.556Z,32.31
2023-05-02T15:00:18.578Z,32.33
2023-05-02T15:01:18.666Z,32.34
2023-05-02T15:02:18.683Z,32.32
2023-05-02T15:03:18.797Z,32.34
2023-05-02T15:04:18.930Z,32.33
2023-05-02T15:05:18.814Z,32.36
2023-05-02T15:06:18.887Z,32.36
2023-05-02T15:07:18.962Z,32.35
2023-05-02T15:08:18.866Z,32.34
2023-05-02T15:09:18.902Z,32.35
2023-05-02T15:10:18.956Z,32.35
2023-05-02T15:11:19.024Z,32.36
2023-05-02T15:12:19.035Z,32.36
2023-05-02T15:13:19.068Z,32.39
2023-05-02T15:14:19.083Z,32.40
2023-05-02T15:15:19.125Z,32.34
2023-05-02T15:16:19.196Z,32.37
2023-05-02T15:17:19.217Z,32.33
2023-05-02T15:18:19.260Z,32.38
2023-05-02T15:19:19.276Z,32.36
2023-05-02T15:20:19.309Z,32.38
2023-05-02T15:21:19.368Z,32.39
2023-05-02T15:22:19.387Z,32.42
2023-05-02T15:23:19.434Z,32.40
2023-05-02T15:24:19.463Z,32.35
2023-05-02T15:25:19.505Z,32.34
2023-05-02T15:26:19.556Z,32.36
2023-05-02T15:27:19.634Z,32.38
2023-05-02T15:28:19.636Z,32.41
2023-05-02T15:29:19.674Z,32.37
2023-05-02T15:30:21.884Z,32.38
2023-05-02T15:31:19.768Z,32.38
2023-05-02T15:32:19.733Z,32.34
2023-05-02T15:33:19.688Z,32.30
2023-05-02T15:34:19.665Z,32.32
2023-05-02T15:35:19.664Z,32.37
2023-05-02T15:36:19.681Z,32.31
2023-05-02T15:37:19.668Z,32.37
2023-05-02T15:38:19.647Z,32.38
2023-05-02T15:39:19.654Z,32.35
2023-05-02T15:40:19.659Z,32.37
2023-05-02T15:41:19.645Z,32.35
2023-05-02T15:42:19.668Z,32.34
2023-05-02T15:43:19.620Z,32.33
2023-05-02T15:44:19.602Z,32.32
2023-05-02T15:45:19.590Z,32.39
2023-05-02T15:46:19.613Z,32.36
2023-05-02T15:47:20.888Z,32.35
2023-05-02T15:48:19.588Z,32.40
2023-05-02T15:49:19.581Z,32.39
2023-05-02T15:50:19.565Z,32.38
2023-05-02T15:51:19.581Z,32.41
2023-05-02T15:52:19.565Z,32.38
2023-05-02T15:53:19.560Z,32.37
2023-05-02T15:54:19.619Z,32.37
2023-05-02T15:55:19.614Z,32.38
2023-05-02T15:56:19.648Z,32.41
2023-05-02T15:57:19.711Z,32.40
2023-05-02T15:58:19.751Z,32.43
2023-05-02T15:59:19.771Z,32.39
2023-05-02T16:00:19.831Z,32.40
2023-05-02T16:01:19.916Z,32.43
2023-05-02T16:02:19.916Z,32.45
2023-05-02T16:03:20.201Z,32.45
2023-05-02T16:04:20.036Z,32.41
2023-05-02T16:05:20.046Z,32.44
2023-05-02T16:06:20.178Z,32.44
2023-05-02T16:07:20.144Z,32.44
2023-05-02T16:08:20.191Z,32.48
2023-05-02T16:09:20.274Z,32.47
2023-05-02T16:10:20.309Z,32.41
2023-05-02T16:11:20.352Z,32.37
2023-05-02T16:12:20.384Z,32.40
2023-05-02T16:13:20.437Z,32.40
2023-05-02T16:14:20.486Z,32.39
2023-05-02T16:15:20.536Z,32.37
2023-05-02T16:16:20.679Z,32.35
2023-05-02T16:17:20.664Z,32.32
2023-05-02T16:18:20.694Z,32.32
2023-05-02T16:19:21.528Z,32.33
2023-05-02T16:20:20.772Z,32.33
2023-05-02T16:21:20.857Z,32.33
2023-05-02T16:22:20.891Z,32.32
2023-05-02T16:23:20.944Z,32.34
2023-05-02T16:24:20.980Z,32.32
2023-05-02T16:25:21.025Z,32.33
2023-05-02T16:26:21.154Z,32.33
2023-05-02T16:27:21.171Z,32.35
2023-05-02T16:28:21.196Z,32.35
2023-05-02T16:29:21.256Z,32.35
2023-05-02T16:30:21.314Z,32.38
2023-05-02T16:31:21.436Z,32.38
2023-05-02T16:32:21.416Z,32.40
2023-05-02T16:33:21.502Z,32.38
2023-05-02T16:34:21.518Z,32.41
2023-05-02T16:35:21.580Z,32.40
2023-05-02T16:36:21.640Z,32.42
2023-05-02T16:37:22.519Z,32.44
2023-05-02T16:38:21.730Z,32.40
2023-05-02T16:39:21.808Z,32.44
2023-05-02T16:40:21.859Z,32.45
2023-05-02T16:41:21.956Z,32.46
2023-05-02T16:42:21.964Z,32.38
2023-05-02T16:43:22.035Z,32.33
2023-05-02T16:44:22.077Z,32.38
2023-05-02T16:45:22.128Z,32.38
2023-05-02T16:46:22.260Z,32.39
2023-05-02T16:47:22.242Z,32.38
2023-05-02T16:48:22.291Z,32.39
2023-05-02T16:49:22.356Z,32.40
2023-05-02T16:50:22.427Z,32.38
2023-05-02T16:51:22.460Z,32.37
2023-05-02T16:52:22.537Z,32.38
2023-05-02T16:53:22.578Z,32.38
2023-05-02T16:54:22.676Z,32.39
2023-05-02T16:55:22.695Z,32.36
2023-05-02T16:56:22.778Z,32.37
2023-05-02T16:57:22.824Z,32.37
2023-05-02T16:58:22.856Z,32.39
2023-05-02T16:59:22.934Z,32.37
2023-05-02T17:00:22.978Z,32.36
2023-05-02T17:01:23.145Z,32.36
2023-05-02T17:02:23.176Z,32.37
2023-05-02T17:03:23.199Z,32.37
2023-05-02T17:04:23.198Z,32.35
2023-05-02T17:05:23.269Z,32.39
2023-05-02T17:06:23.366Z,32.35
2023-05-02T17:07:23.380Z,32.36
2023-05-02T17:08:23.447Z,32.33
2023-05-02T17:09:23.513Z,32.36
2023-05-02T17:10:23.570Z,32.36
2023-05-02T17:11:23.686Z,32.37
2023-05-02T17:12:23.693Z,32.35
2023-05-02T17:13:23.744Z,32.38
2023-05-02T17:14:23.822Z,32.39
2023-05-02T17:15:23.873Z,32.37
2023-05-02T17:16:24.011Z,32.38
2023-05-02T17:17:24.019Z,32.41
2023-05-02T17:18:24.124Z,32.40
2023-05-02T17:19:24.094Z,32.42
2023-05-02T17:20:24.164Z,32.42
2023-05-02T17:21:24.260Z,32.40
2023-05-02T17:22:24.293Z,32.42
2023-05-02T17:23:24.359Z,32.42
2023-05-02T17:24:24.429Z,32.41
2023-05-02T17:25:24.474Z,32.44
2023-05-02T17:26:24.559Z,32.44
2023-05-02T17:27:24.596Z,32.46
2023-05-02T17:28:24.650Z,32.47
2023-05-02T17:29:24.718Z,32.48
2023-05-02T17:30:24.793Z,32.45
2023-05-02T17:31:24.888Z,32.47
2023-05-02T17:32:24.945Z,32.47
2023-05-02T17:33:24.989Z,32.47
2023-05-02T17:34:25.000Z,32.48
2023-05-02T17:35:25.063Z,32.49
2023-05-02T17:36:25.130Z,32.49
2023-05-02T17:37:25.190Z,32.47
2023-05-02T17:38:25.236Z,32.47
2023-05-02T17:39:25.292Z,32.47
2023-05-02T17:40:25.363Z,32.49
2023-05-02T17:41:25.445Z,32.49
2023-05-02T17:42:25.509Z,32.50
2023-05-02T17:43:25.554Z,32.48
2023-05-02T17:44:25.598Z,32.49
2023-05-02T17:45:25.663Z,32.48
2023-05-02T17:46:25.834Z,32.49
2023-05-02T17:47:25.806Z,32.51
2023-05-02T17:48:25.910Z,32.51
2023-05-02T17:49:25.947Z,32.48
2023-05-02T17:50:25.983Z,32.52
2023-05-02T17:51:26.087Z,32.49
2023-05-02T17:52:26.121Z,32.51
2023-05-02T17:53:26.230Z,32.50
2023-05-02T17:54:26.263Z,32.51
2023-05-02T17:55:26.319Z,32.51
2023-05-02T17:56:26.406Z,32.49
2023-05-02T17:57:26.456Z,32.50
2023-05-02T17:58:26.528Z,32.49
2023-05-02T17:59:26.600Z,32.48
2023-05-02T18:00:26.658Z,32.51
2023-05-02T18:01:26.772Z,32.49
2023-05-02T18:02:26.885Z,32.48
2023-05-02T18:03:26.894Z,32.50
2023-05-02T18:04:26.919Z,32.51
2023-05-02T18:05:26.963Z,32.49
2023-05-02T18:06:27.090Z,32.52
2023-05-02T18:07:27.110Z,32.49
2023-05-02T18:08:27.185Z,32.50
2023-05-02T18:09:27.229Z,32.53
2023-05-02T18:10:27.299Z,32.50
2023-05-02T18:11:27.369Z,32.50
2023-05-02T18:12:27.413Z,32.53
2023-05-02T18:13:27.483Z,32.51
2023-05-02T18:14:27.561Z,32.50
2023-05-02T18:15:27.721Z,32.49
2023-05-02T18:16:27.787Z,32.52
2023-05-02T18:17:27.838Z,32.49
2023-05-02T18:18:27.827Z,32.48
2023-05-02T18:19:27.876Z,32.52
2023-05-02T18:20:27.940Z,32.52
2023-05-02T18:21:28.007Z,32.52
2023-05-02T18:22:28.058Z,32.52
2023-05-02T18:23:28.142Z,32.51
2023-05-02T18:24:28.232Z,32.52
2023-05-02T18:25:28.252Z,32.53
2023-05-02T18:26:28.313Z,32.51
2023-05-02T18:27:28.397Z,32.53
2023-05-02T18:28:28.447Z,32.53
2023-05-02T18:29:28.513Z,32.55
2023-05-02T18:30:28.568Z,32.53
2023-05-02T18:31:28.676Z,32.56
2023-05-02T18:32:28.744Z,32.54
2023-05-02T18:33:28.764Z,32.53
2023-05-02T18:34:28.823Z,32.54
2023-05-02T18:35:28.881Z,32.55
2023-05-02T18:36:28.976Z,32.57
2023-05-02T18:37:29.002Z,32.56
2023-05-02T18:38:29.068Z,32.57
2023-05-02T18:39:29.132Z,32.55
2023-05-02T18:40:29.220Z,32.56
2023-05-02T18:41:29.257Z,32.56
2023-05-02T18:42:29.332Z,32.58
2023-05-02T18:43:29.388Z,32.58
2023-05-02T18:44:29.454Z,32.60
2023-05-02T18:45:29.536Z,32.60
2023-05-02T18:46:29.617Z,32.61
2023-05-02T18:47:29.676Z,32.60
2023-05-02T18:48:29.748Z,32.62
2023-05-02T18:49:29.779Z,32.59
2023-05-02T18:50:29.840Z,32.61
2023-05-02T18:51:29.905Z,32.61
2023-05-02T18:52:29.972Z,32.60
2023-05-02T18:53:30.023Z,32.61
2023-05-02T18:54:30.065Z,32.61
2023-05-02T18:55:30.177Z,32.62
2023-05-02T18:56:30.200Z,32.64
2023-05-02T18:57:30.225Z,32.62
2023-05-02T18:58:30.301Z,32.61
2023-05-02T18:59:30.333Z,32.61
2023-05-02T19:00:30.385Z,32.62
2023-05-02T19:01:30.498Z,32.64
2023-05-02T19:02:30.536Z,32.64
2023-05-02T19:03:30.737Z,32.64
2023-05-02T19:04:30.616Z,32.65
2023-05-02T19:05:30.671Z,32.67
2023-05-02T19:06:30.766Z,32.66
2023-05-02T19:07:30.749Z,32.64
2023-05-02T19:08:30.799Z,32.66
2023-05-02T19:09:30.889Z,32.63
2023-05-02T19:10:30.920Z,32.64
2023-05-02T19:11:30.986Z,32.65
2023-05-02T19:12:31.035Z,32.67
2023-05-02T19:13:31.039Z,32.65
2023-05-02T19:14:31.099Z,32.66
2023-05-02T19:15:31.128Z,32.65
2023-05-02T19:16:31.266Z,32.65
2023-05-02T19:17:31.248Z,32.66
2023-05-02T19:18:31.255Z,32.64
2023-05-02T19:19:31.309Z,32.67
2023-05-02T19:20:31.387Z,32.67
2023-05-02T19:21:31.413Z,32.64
2023-05-02T19:22:31.460Z,32.66
2023-05-02T19:23:31.483Z,32.64
2023-05-02T19:24:31.518Z,32.65
2023-05-02T19:25:31.528Z,32.66
2023-05-02T19:26:31.588Z,32.68
2023-05-02T19:27:31.652Z,32.65
2023-05-02T19:28:31.660Z,32.64
2023-05-02T19:29:31.717Z,32.65
2023-05-02T19:30:31.753Z,32.66
2023-05-02T19:31:31.857Z,32.67
2023-05-02T19:32:31.883Z,32.69
2023-05-02T19:33:31.889Z,32.66
2023-05-02T19:34:31.937Z,32.66
2023-05-02T19:35:31.975Z,32.66
2023-05-02T19:36:32.018Z,32.66
2023-05-02T19:37:32.072Z,32.67
2023-05-02T19:38:32.121Z,32.67
2023-05-02T19:39:32.171Z,32.66
2023-05-02T19:40:32.235Z,32.67
2023-05-02T19:41:32.274Z,32.67
2023-05-02T19:42:32.293Z,32.66
2023-05-02T19:43:32.335Z,32.68
2023-05-02T19:44:32.396Z,32.63
2023-05-02T19:45:32.418Z,32.67
2023-05-02T19:46:32.581Z,32.67
2023-05-02T19:47:32.571Z,32.65
2023-05-02T19:48:32.530Z,32.63
2023-05-02T19:49:32.614Z,32.65
2023-05-02T19:50:32.607Z,32.66
2023-05-02T19:51:32.659Z,32.66
2023-05-02T19:52:32.663Z,32.66
2023-05-02T19:53:32.700Z,32.65
2023-05-02T19:54:32.725Z,32.64
2023-05-02T19:55:32.739Z,32.63
2023-05-02T19:56:32.818Z,32.65
2023-05-02T19:57:32.835Z,32.63
2023-05-02T19:58:32.849Z,32.64
2023-05-02T19:59:32.918Z,32.64
2023-05-02T20:00:32.959Z,32.61
2023-05-02T20:01:33.032Z,32.63
2023-05-02T20:02:33.139Z,32.63
2023-05-02T20:03:33.094Z,32.64
2023-05-02T20:04:33.129Z,32.64
2023-05-02T20:05:33.176Z,32.62
2023-05-02T20:06:33.223Z,32.61
2023-05-02T20:07:33.268Z,32.63
2023-05-02T20:08:33.295Z,32.62
2023-05-02T20:09:33.352Z,32.62
2023-05-02T20:10:33.405Z,32.62
2023-05-02T20:11:33.431Z,32.64
2023-05-02T20:12:33.475Z,32.59
2023-05-02T20:13:33.533Z,32.62
2023-05-02T20:14:33.571Z,32.63
2023-05-02T20:15:33.609Z,32.61
2023-05-02T20:16:33.656Z,32.60
2023-05-02T20:17:33.703Z,32.62
2023-05-02T20:18:33.741Z,32.62
2023-05-02T20:19:33.765Z,32.63
2023-05-02T20:20:33.806Z,32.64
2023-05-02T20:21:33.869Z,32.62
2023-05-02T20:22:33.883Z,32.64
2023-05-02T20:23:33.895Z,32.64
2023-05-02T20:24:33.980Z,32.65
2023-05-02T20:25:33.951Z,32.64
2023-05-02T20:26:33.996Z,32.66
2023-05-02T20:27:34.017Z,32.66
2023-05-02T20:28:34.046Z,32.66
2023-05-02T20:29:34.088Z,32.67
2023-05-02T20:30:34.130Z,32.66
2023-05-02T20:31:34.204Z,32.65
2023-05-02T20:32:34.173Z,32.66
2023-05-02T20:33:44.447Z,32.68
2023-05-02T20:34:35.189Z,32.66
2023-05-02T20:35:34.172Z,32.68
2023-05-02T20:36:34.184Z,32.69
2023-05-02T20:37:34.180Z,32.70
2023-05-02T20:38:34.179Z,32.68
2023-05-02T20:39:34.199Z,32.69
2023-05-02T20:40:34.139Z,32.69
2023-05-02T20:41:34.151Z,32.70
2023-05-02T20:42:34.125Z,32.69
2023-05-02T20:43:34.138Z,32.71
2023-05-02T20:44:34.117Z,32.70
2023-05-02T20:45:34.128Z,32.70
2023-05-02T20:46:34.177Z,32.72
2023-05-02T20:47:34.164Z,32.71
2023-05-02T20:48:34.092Z,32.69
2023-05-02T20:49:34.087Z,32.70
2023-05-02T20:50:34.116Z,32.71
2023-05-02T20:51:34.120Z,32.72
2023-05-02T20:52:34.077Z,32.72
2023-05-02T20:53:34.086Z,32.71
2023-05-02T20:54:34.076Z,32.72
2023-05-02T20:55:34.074Z,32.72
2023-05-02T20:56:34.084Z,32.73
2023-05-02T20:57:34.094Z,32.71
2023-05-02T20:58:34.100Z,32.70
2023-05-02T20:59:34.091Z,32.71
2023-05-02T21:00:34.112Z,32.73
2023-05-02T21:01:34.155Z,32.71
2023-05-02T21:02:34.135Z,32.71
2023-05-02T21:03:34.175Z,32.71
2023-05-02T21:04:34.154Z,32.73
2023-05-02T21:05:34.166Z,32.72
2023-05-02T21:06:34.233Z,32.71
2023-05-02T21:07:34.152Z,32.70
2023-05-02T21:08:34.140Z,32.70
2023-05-02T21:09:34.128Z,32.70
2023-05-02T21:10:34.139Z,32.72
2023-05-02T21:11:34.142Z,32.70
2023-05-02T21:12:34.161Z,32.74
2023-05-02T21:13:34.161Z,32.71
2023-05-02T21:14:34.202Z,32.71
2023-05-02T21:15:34.250Z,32.72
2023-05-02T21:16:34.271Z,32.71
2023-05-02T21:17:34.213Z,32.70
2023-05-02T21:18:34.164Z,32.70
2023-05-02T21:19:34.206Z,32.70
2023-05-02T21:20:34.195Z,32.70
2023-05-02T21:21:34.183Z,32.67
2023-05-02T21:22:34.214Z,32.68
2023-05-02T21:23:34.222Z,32.67
2023-05-02T21:24:34.253Z,32.67
2023-05-02T21:25:34.257Z,32.65
2023-05-02T21:26:34.246Z,32.65
2023-05-02T21:27:34.316Z,32.65
2023-05-02T21:28:34.280Z,32.65
2023-05-02T21:29:34.312Z,32.63
2023-05-02T21:30:34.319Z,32.62
2023-05-02T21:31:34.376Z,32.62
2023-05-02T21:32:34.405Z,32.62
2023-05-02T21:33:34.346Z,32.62
2023-05-02T21:34:34.672Z,32.60
2023-05-02T21:35:34.378Z,32.58
2023-05-02T21:36:34.375Z,32.60
2023-05-02T21:37:34.411Z,32.57
2023-05-02T21:38:34.402Z,32.58
2023-05-02T21:39:34.395Z,32.54
2023-05-02T21:40:34.424Z,32.53
2023-05-02T21:41:34.432Z,32.55
2023-05-02T21:42:34.455Z,32.54
2023-05-02T21:43:34.427Z,32.54
2023-05-02T21:44:34.447Z,32.53
2023-05-02T21:45:34.440Z,32.50
2023-05-02T21:46:34.450Z,32.50
2023-05-02T21:47:34.454Z,32.47
2023-05-02T21:48:34.459Z,32.48
2023-05-02T21:49:34.468Z,32.47
2023-05-02T21:50:34.471Z,32.49
2023-05-02T21:51:34.506Z,32.47
2023-05-02T21:52:34.484Z,32.48
2023-05-02T21:53:34.508Z,32.48
2023-05-02T21:54:34.482Z,32.44
2023-05-02T21:55:34.479Z,32.43
2023-05-02T21:56:34.463Z,32.42
2023-05-02T21:57:34.477Z,32.40
2023-05-02T21:58:34.459Z,32.41
2023-05-02T21:59:34.473Z,32.41
2023-05-02T22:00:34.521Z,32.41
2023-05-02T22:01:34.449Z,32.40
2023-05-02T22:02:34.563Z,32.39
2023-05-02T22:03:34.501Z,32.40
2023-05-02T22:04:34.478Z,32.40
2023-05-02T22:05:34.503Z,32.39
2023-05-02T22:06:34.580Z,32.39
2023-05-02T22:07:34.436Z,32.41